createdAt,value
2018-09-06T00:05:02.616Z,73.29
2018-09-06T00:10:06.375Z,73.61
2018-09-06T00:15:10.027Z,74.24
2018-09-06T00:20:13.636Z,74.90
2018-09-06T00:25:17.195Z,74.96
2018-09-06T00:30:29.175Z,74.85
2018-09-06T00:35:32.674Z,74.51
2018-09-06T00:40:36.718Z,74.74
2018-09-06T00:45:40.211Z,74.34
2018-09-06T00:50:43.781Z,75.35
2018-09-06T00:55:50.531Z,75.44
2018-09-06T01:00:54.295Z,74.04
2018-09-06T01:05:57.827Z,75.30
2018-09-06T01:11:01.484Z,75.18
2018-09-06T01:16:05.262Z,74.62
2018-09-06T01:21:08.798Z,75.00
2018-09-06T01:26:12.393Z,75.65
2018-09-06T01:31:15.962Z,75.88
2018-09-06T01:36:24.727Z,75.44
2018-09-06T01:41:28.417Z,76.89
2018-09-06T01:46:31.964Z,78.55
2018-09-06T01:51:35.962Z,77.29
2018-09-06T01:56:39.452Z,77.51
2018-09-06T02:01:44.026Z,77.37
2018-09-06T02:06:47.586Z,76.76
2018-09-06T02:11:51.721Z,77.24
2018-09-06T02:16:55.221Z,77.34
2018-09-06T02:21:58.748Z,76.88
2018-09-06T02:27:02.289Z,76.73
2018-09-06T02:32:05.920Z,76.81
2018-09-06T02:37:09.398Z,76.99
2018-09-06T02:42:13.354Z,75.60
2018-09-06T02:47:16.916Z,75.48
2018-09-06T02:52:20.561Z,74.14
2018-09-06T02:57:24.081Z,76.29
2018-09-06T03:02:27.712Z,76.00
2018-09-06T03:07:31.313Z,76.38
2018-09-06T03:12:34.983Z,75.19
2018-09-06T03:17:38.685Z,75.48
2018-09-06T03:22:42.221Z,76.43
2018-09-06T03:27:45.694Z,75.17
2018-09-06T03:32:49.320Z,75.89
2018-09-06T03:37:52.838Z,77.08
2018-09-06T03:42:56.527Z,77.41
2018-09-06T03:48:00.094Z,79.00
2018-09-06T03:53:03.629Z,79.24
2018-09-06T03:58:07.217Z,80.21
2018-09-06T04:03:10.808Z,81.66
2018-09-06T04:08:14.435Z,82.70
2018-09-06T04:13:18.062Z,84.50
2018-09-06T04:18:22.026Z,84.42
2018-09-06T04:23:25.846Z,85.02
2018-09-06T04:28:30.179Z,84.52
2018-09-06T04:33:34.938Z,84.70
2018-09-06T04:38:38.436Z,84.28
2018-09-06T04:43:42.050Z,83.56
2018-09-06T04:48:45.650Z,83.32
2018-09-06T04:53:49.696Z,83.06
2018-09-06T04:58:53.543Z,83.55
2018-09-06T05:03:57.116Z,86.40
2018-09-06T05:09:00.637Z,88.36
2018-09-06T05:14:04.764Z,85.77
2018-09-06T05:19:08.237Z,85.45
2018-09-06T05:24:12.105Z,83.13
2018-09-06T05:29:15.593Z,84.72
2018-09-06T05:34:19.091Z,83.69
2018-09-06T05:39:22.564Z,86.12
2018-09-06T05:44:27.000Z,85.79
2018-09-06T05:49:30.477Z,85.57
2018-09-06T05:54:34.011Z,80.75
2018-09-06T05:59:37.625Z,80.15
2018-09-06T06:04:41.119Z,77.45
2018-09-06T06:09:44.717Z,76.36
2018-09-06T06:14:48.261Z,75.79
2018-09-06T06:19:51.766Z,74.73
2018-09-06T06:24:55.258Z,74.07
2018-09-06T06:29:58.752Z,73.66
2018-09-06T06:35:02.340Z,73.14
2018-09-06T06:40:06.028Z,73.52
2018-09-06T06:45:09.819Z,73.14
2018-09-06T06:50:13.391Z,72.85
2018-09-06T06:55:17.042Z,72.68
2018-09-06T07:00:28.078Z,70.71
2018-09-06T07:05:31.576Z,70.35
2018-09-06T07:10:35.118Z,69.12
2018-09-06T07:15:38.710Z,68.81
2018-09-06T07:20:42.173Z,68.13
2018-09-06T07:25:46.597Z,67.84
2018-09-06T07:30:50.483Z,67.19
2018-09-06T07:35:54.142Z,66.57
2018-09-06T07:40:57.629Z,66.84
2018-09-06T07:46:01.385Z,65.65
2018-09-06T07:51:04.993Z,64.67
2018-09-06T07:56:08.921Z,64.04
2018-09-06T08:01:12.393Z,64.75
2018-09-06T08:06:15.977Z,63.28
2018-09-06T08:11:19.721Z,63.90
2018-09-06T08:16:23.458Z,61.52
2018-09-06T08:21:26.922Z,60.04
2018-09-06T08:26:31.922Z,58.55
2018-09-06T08:31:35.861Z,58.51
2018-09-06T08:36:40.076Z,57.88
2018-09-06T08:41:43.674Z,55.69
2018-09-06T08:46:47.840Z,55.68
2018-09-06T08:51:51.400Z,55.46
2018-09-06T08:56:55.145Z,55.52
2018-09-06T09:01:59.119Z,53.48
2018-09-06T09:07:02.718Z,53.48
2018-09-06T09:12:06.470Z,52.43
2018-09-06T09:17:10.054Z,52.16
2018-09-06T09:22:14.112Z,52.41
2018-09-06T09:27:17.633Z,52.24
2018-09-06T09:32:21.140Z,52.22
2018-09-06T09:37:24.727Z,51.04
2018-09-06T09:42:28.327Z,52.02
2018-09-06T09:52:37.758Z,51.05
2018-09-06T09:57:41.288Z,50.70
2018-09-06T10:02:50.221Z,50.78
2018-09-06T10:07:57.919Z,50.81
2018-09-06T10:13:01.644Z,51.09
2018-09-06T10:18:05.234Z,49.79
2018-09-06T10:23:08.838Z,49.28
2018-09-06T10:28:12.506Z,50.68
2018-09-06T10:33:16.019Z,50.39
2018-09-06T10:38:19.637Z,50.53
2018-09-06T10:43:23.443Z,50.81
2018-09-06T10:48:26.962Z,50.76
2018-09-06T10:53:30.541Z,50.43
2018-09-06T10:58:34.114Z,50.34
2018-09-06T11:03:37.759Z,50.75
2018-09-06T11:08:41.277Z,51.00
2018-09-06T11:13:44.860Z,50.41
2018-09-06T11:18:48.605Z,50.36
2018-09-06T11:23:52.711Z,49.15
2018-09-06T11:28:56.253Z,49.94
2018-09-06T11:33:59.829Z,48.63
2018-09-06T11:39:04.787Z,48.06
2018-09-06T11:44:08.651Z,47.74
2018-09-06T11:49:12.289Z,47.19
2018-09-06T11:54:16.113Z,48.45
2018-09-06T11:59:19.600Z,48.58
2018-09-06T12:04:25.358Z,49.71
2018-09-06T12:09:28.836Z,53.64
2018-09-06T12:14:33.285Z,58.10
2018-09-06T12:19:36.865Z,60.77
2018-09-06T12:24:40.730Z,62.01
2018-09-06T12:29:44.325Z,62.93
2018-09-06T12:34:48.794Z,65.36
2018-09-06T12:39:52.373Z,67.72
2018-09-06T12:44:56.554Z,69.69
2018-09-06T12:50:00.045Z,71.81
2018-09-06T12:55:03.617Z,73.82
2018-09-06T13:00:10.047Z,78.17
2018-09-06T13:05:13.694Z,79.94
2018-09-06T13:10:17.248Z,78.44
2018-09-06T13:15:20.855Z,80.04
2018-09-06T13:20:24.343Z,79.52
2018-09-06T13:25:28.246Z,79.27
2018-09-06T13:30:35.602Z,79.07
2018-09-06T13:35:39.262Z,76.60
2018-09-06T13:40:43.756Z,77.04
2018-09-06T13:45:47.361Z,76.02
2018-09-06T13:50:51.663Z,74.03
2018-09-06T13:55:55.353Z,72.08
2018-09-06T14:00:59.443Z,71.20
2018-09-06T14:06:02.990Z,70.83
2018-09-06T14:11:06.555Z,71.22
2018-09-06T14:16:10.120Z,72.89
2018-09-06T14:21:13.878Z,73.03
2018-09-06T14:26:17.605Z,73.36
2018-09-06T14:31:21.569Z,72.42
2018-09-06T14:36:25.564Z,73.25
2018-09-06T14:41:29.121Z,74.79
2018-09-06T14:46:32.704Z,74.62
2018-09-06T14:51:36.267Z,74.74
2018-09-06T14:56:39.796Z,71.19
2018-09-06T15:01:45.532Z,69.84
2018-09-06T15:06:49.047Z,66.58
2018-09-06T15:11:52.545Z,66.69
2018-09-06T15:16:56.527Z,67.14
2018-09-06T15:22:00.069Z,68.28
2018-09-06T15:27:03.709Z,69.86
2018-09-06T15:32:08.276Z,68.42
2018-09-06T15:37:11.829Z,67.04
2018-09-06T15:42:15.351Z,69.26
2018-09-06T15:47:18.924Z,66.44
2018-09-06T15:52:23.503Z,67.05
2018-09-06T15:57:27.133Z,69.07
2018-09-06T16:02:38.403Z,70.67
2018-09-06T16:07:42.555Z,71.73
2018-09-06T16:12:46.101Z,69.42
2018-09-06T16:17:49.718Z,69.21
2018-09-06T16:22:53.341Z,68.55
2018-09-06T16:27:57.144Z,69.00
2018-09-06T16:33:00.655Z,69.64
2018-09-06T16:38:04.394Z,70.60
2018-09-06T16:43:07.884Z,71.92
2018-09-06T16:48:12.310Z,72.48
2018-09-06T16:53:16.191Z,71.69
2018-09-06T16:58:20.081Z,72.50
2018-09-06T17:03:23.606Z,73.04
2018-09-06T17:08:27.224Z,72.86
2018-09-06T17:13:31.815Z,73.52
2018-09-06T17:18:35.652Z,74.31
2018-09-06T17:23:39.238Z,76.36
2018-09-06T17:28:43.201Z,76.74
2018-09-06T17:33:46.783Z,76.96
2018-09-06T17:38:50.897Z,77.26
2018-09-06T17:43:54.558Z,77.34
2018-09-06T17:48:59.104Z,77.08
2018-09-06T17:54:02.935Z,77.21
2018-09-06T17:59:06.556Z,75.89
2018-09-06T18:04:10.930Z,76.89
2018-09-06T18:09:14.995Z,77.92
2018-09-06T18:14:18.568Z,77.24
2018-09-06T18:19:23.716Z,79.18
2018-09-06T18:24:27.306Z,79.13
2018-09-06T18:29:31.583Z,80.21
2018-09-06T18:34:35.079Z,79.90
2018-09-06T18:39:43.206Z,78.53
2018-09-06T18:44:46.838Z,78.95
2018-09-06T18:49:50.496Z,79.55
2018-09-06T18:54:54.049Z,80.49
2018-09-06T18:59:57.827Z,81.91
2018-09-06T19:05:01.685Z,83.57
2018-09-06T19:10:07.309Z,83.03
2018-09-06T19:15:10.830Z,83.51
2018-09-06T19:20:15.250Z,83.58
2018-09-06T19:25:18.784Z,84.91
2018-09-06T19:30:42.277Z,86.83
2018-09-06T19:35:46.597Z,87.71
2018-09-06T19:40:50.307Z,87.11
2018-09-06T19:45:54.262Z,86.53
2018-09-06T19:50:57.821Z,86.32
2018-09-06T19:56:01.382Z,86.99
2018-09-06T20:01:04.930Z,88.67
2018-09-06T20:06:08.606Z,88.05
2018-09-06T20:11:12.273Z,89.67
2018-09-06T20:16:15.807Z,87.75
2018-09-06T20:21:19.373Z,87.32
2018-09-06T20:26:22.855Z,87.26
2018-09-06T20:31:26.638Z,87.80
2018-09-06T20:36:30.238Z,89.34
2018-09-06T20:41:33.756Z,89.75
2018-09-06T20:46:37.880Z,89.65
2018-09-06T20:51:41.478Z,90.01
2018-09-06T20:56:45.621Z,91.31
2018-09-06T21:01:49.164Z,92.02
2018-09-06T21:06:52.646Z,93.33
2018-09-06T21:11:56.372Z,94.43
2018-09-06T21:17:00.453Z,94.26
2018-09-06T21:22:04.118Z,94.06
2018-09-06T21:27:07.849Z,94.89
2018-09-06T21:32:11.593Z,95.96
2018-09-06T21:37:15.082Z,95.61
2018-09-06T21:42:19.050Z,95.26
2018-09-06T21:47:22.579Z,96.75
2018-09-06T21:52:26.249Z,94.13
2018-09-06T21:57:30.578Z,93.42
2018-09-06T22:02:39.513Z,92.93
2018-09-06T22:07:43.094Z,91.95
2018-09-06T22:12:47.328Z,92.62
2018-09-06T22:17:50.889Z,94.08
2018-09-06T22:22:54.450Z,94.79
2018-09-06T22:27:58.039Z,95.29
2018-09-06T22:33:01.564Z,95.55
2018-09-06T22:38:05.352Z,96.83
2018-09-06T22:43:09.766Z,95.81
2018-09-06T22:48:13.264Z,96.65
2018-09-06T22:53:17.296Z,96.69
2018-09-06T22:58:20.881Z,97.40
2018-09-06T23:03:29.797Z,97.97
2018-09-06T23:08:34.127Z,97.32
2018-09-06T23:13:37.962Z,97.66
2018-09-06T23:18:42.304Z,97.57
2018-09-06T23:23:50.480Z,98.28
2018-09-06T23:28:54.535Z,97.54
2018-09-06T23:33:58.162Z,95.52
2018-09-06T23:39:02.008Z,95.20
2018-09-06T23:44:05.584Z,93.89
2018-09-06T23:49:09.643Z,93.19
2018-09-06T23:54:13.414Z,93.82
2018-09-06T23:59:16.984Z,94.32
